Terminal Aerodrome Forecast
Issued by NWS Central Illinois

Home | Current Version | Previous Version | Text Only | Print | Product List | Glossary On
Versions: 1 2 3 4 5 6 7 8 9 10 11 12 13 14 15 16 17 18 19 20 21 22 23
000
FTUS43 KILX 272326
TAFPIA
TAF
KPIA 272326Z 2800/2824 09005KT P6SM SCT045 BKN200
     FM280900 10004KT P6SM BKN030
     FM281100 10005KT 2SM BR VCTS BKN008CB
     FM281600 30007KT 5SM BR VCTS BKN020CB
     FM281800 31010KT P6SM BKN040
     FM282200 31009KT P6SM SCT100=

USA.gov is the U.S. government's official web portal to all federal, state and local government web resources and services.